Time;durP1;ratioP1;P1;durP2;ratioP2;P2;SDS_P1;SDS_P2;PMS_P1;PMS_P2;Temp;Humidity;BMP_temperature;BMP_pressure;BME280_temperature;BME280_humidity;BME280_pressure;Samples;Min_cycle;Max_cycle;Signal;HPM_P1;HPM_P2
2023/05/03 00:00:22;;;;;;;;;;;;;;;5.36;79.19;102935.78;5102689;27;19964;-47
2023/05/03 00:02:47;;;;;;;;;;;;;;;5.32;76.33;102938.84;5034059;27;19964;-47
2023/05/03 00:05:13;;;;;;;;;;;;;;;5.29;77.83;102937.72;5024001;27;19967;-51
2023/05/03 00:07:43;;;;;;;;;;;;;;;5.26;78.09;102932.34;5015630;27;20542;-48
2023/05/03 00:10:12;;;;;;;;;;;;;;;5.25;78.67;102935.69;5019514;27;19946;-47
2023/05/03 00:12:38;;;;;;;;;;;;;;;5.24;77.10;102934.78;5012430;28;19925;-51
2023/05/03 00:15:03;;;;;;;;;;;;;;;5.24;77.57;102939.88;5020246;27;19916;-49
2023/05/03 00:17:29;;;;;;;;;;;;;;;5.22;79.92;102933.78;5021381;28;19931;-48
2023/05/03 00:19:55;;;;;;;;;;;;;;;5.23;80.35;102939.78;5028766;27;19978;-50
2023/05/03 00:22:21;;;;;;;;;;;;;;;5.19;79.89;102930.97;5019552;27;19925;-49
2023/05/03 00:24:46;;;;;;;;;;;;;;;5.17;79.51;102929.94;5038146;27;19954;-50
2023/05/03 00:27:11;;;;;;;;;;;;;;;5.14;80.18;102934.78;5023215;28;19941;-44
2023/05/03 00:29:36;;;;;;;;;;;;;;;5.10;81.21;102930.22;5021644;27;19936;-42
2023/05/03 00:32:03;;;;;;;;;;;;;;;5.07;80.87;102935.94;5022163;28;19921;-44
2023/05/03 00:34:28;;;;;;;;;;;;;;;5.04;79.72;102927.16;5018036;28;19928;-43
2023/05/03 00:36:53;;;;;;;;;;;;;;;5.02;79.39;102928.66;5016654;27;19921;-43
2023/05/03 00:39:18;;;;;;;;;;;;;;;5.00;79.59;102928.53;5023904;27;20427;-42
2023/05/03 00:41:44;;;;;;;;;;;;;;;5.00;78.69;102927.66;5008970;27;20352;-42
2023/05/03 00:44:09;;;;;;;;;;;;;;;4.99;80.99;102930.97;5021485;27;19921;-42
2023/05/03 00:46:34;;;;;;;;;;;;;;;4.97;80.35;102935.91;5025902;27;19917;-43
2023/05/03 00:49:00;;;;;;;;;;;;;;;4.95;80.61;102931.47;5022356;27;19925;-43
2023/05/03 00:51:26;;;;;;;;;;;;;;;4.93;81.04;102940.66;5019477;28;20602;-42
2023/05/03 00:53:52;;;;;;;;;;;;;;;4.88;81.23;102931.72;5018272;27;19975;-44
2023/05/03 00:56:22;;;;;;;;;;;;;;;4.85;80.70;102929.78;5023632;27;19929;-42
2023/05/03 00:58:47;;;;;;;;;;;;;;;4.83;80.82;102927.13;5026004;27;19925;-42
2023/05/03 01:01:14;;;;;;;;;;;;;;;4.83;80.58;102929.69;5015624;27;19925;-43
2023/05/03 01:03:40;;;;;;;;;;;;;;;4.81;80.14;102926.13;5021208;27;19921;-42
2023/05/03 01:06:24;;;;;;;;;;;;;;;4.79;78.96;102927.66;5022750;27;20380;-44
2023/05/03 01:08:53;;;;;;;;;;;;;;;4.78;81.49;102923.28;5016622;27;19924;-41
2023/05/03 01:11:22;;;;;;;;;;;;;;;4.76;82.94;102927.38;5020571;27;20402;-41
2023/05/03 01:13:48;;;;;;;;;;;;;;;4.74;81.58;102930.56;5018338;27;20415;-42
2023/05/03 01:16:30;;;;;;;;;;;;;;;4.70;82.07;102916.66;5018581;27;19953;-43
2023/05/03 01:19:00;;;;;;;;;;;;;;;4.66;81.80;102924.81;5024346;27;19971;-43
2023/05/03 01:21:26;;;;;;;;;;;;;;;4.61;83.49;102925.19;5019721;28;19925;-43
2023/05/03 01:24:12;;;;;;;;;;;;;;;4.57;83.61;102922.38;5023014;28;19932;-43
2023/05/03 01:26:37;;;;;;;;;;;;;;;4.55;82.65;102930.63;5018434;28;19983;-42
2023/05/03 01:29:04;;;;;;;;;;;;;;;4.54;83.49;102936.50;5020253;27;20410;-41
2023/05/03 01:31:36;;;;;;;;;;;;;;;4.51;83.04;102941.34;5020684;27;19924;-42
2023/05/03 01:34:06;;;;;;;;;;;;;;;4.50;83.41;102942.13;5029494;27;19921;-43
2023/05/03 01:36:34;;;;;;;;;;;;;;;4.46;82.77;102942.63;5020994;27;20004;-42
2023/05/03 01:39:05;;;;;;;;;;;;;;;4.44;81.73;102939.06;5021695;28;20380;-43
2023/05/03 01:41:32;;;;;;;;;;;;;;;4.41;84.39;102941.31;5017888;28;20253;-44
2023/05/03 01:43:57;;;;;;;;;;;;;;;4.40;82.84;102934.44;5019517;28;19929;-42
2023/05/03 01:46:23;;;;;;;;;;;;;;;4.38;83.56;102931.78;5025540;27;19947;-43
2023/05/03 01:48:48;;;;;;;;;;;;;;;4.39;83.68;102942.84;5028200;27;20431;-43
2023/05/03 01:51:13;;;;;;;;;;;;;;;4.37;82.07;102936.72;5016199;28;19954;-43
2023/05/03 01:53:40;;;;;;;;;;;;;;;4.37;84.03;102936.72;5017032;28;19970;-42
2023/05/03 01:56:07;;;;;;;;;;;;;;;4.36;84.13;102934.94;5016488;28;20398;-43
2023/05/03 01:58:32;;;;;;;;;;;;;;;4.34;83.99;102936.47;5004110;28;19921;-43
2023/05/03 02:00:57;;;;;;;;;;;;;;;4.30;84.78;102941.28;5015579;28;19925;-43
2023/05/03 02:03:23;;;;;;;;;;;;;;;4.27;82.96;102938.47;5018870;28;19925;-44
2023/05/03 02:05:48;;;;;;;;;;;;;;;4.26;85.24;102935.81;5016506;28;20685;-43
2023/05/03 02:08:13;;;;;;;;;;;;;;;4.23;83.96;102930.44;5019445;28;20020;-44
2023/05/03 02:10:38;;;;;;;;;;;;;;;4.20;85.70;102936.16;5017178;28;19921;-45
2023/05/03 02:13:03;;;;;;;;;;;;;;;4.16;84.92;102936.66;5023058;28;19921;-42
2023/05/03 02:15:29;;;;;;;;;;;;;;;4.15;87.04;102934.88;5017073;28;20020;-42
2023/05/03 02:17:54;;;;;;;;;;;;;;;4.13;85.43;102933.84;5018486;28;19940;-43
2023/05/03 02:20:20;;;;;;;;;;;;;;;4.12;86.49;102931.16;5019180;28;20429;-43
2023/05/03 02:22:45;;;;;;;;;;;;;;;4.11;87.07;102919.19;5014926;28;19926;-48
2023/05/03 02:25:10;;;;;;;;;;;;;;;4.10;85.04;102928.47;5020381;28;19982;-51
2023/05/03 02:27:35;;;;;;;;;;;;;;;4.09;83.99;102923.28;5018086;28;19932;-48
2023/05/03 02:30:01;;;;;;;;;;;;;;;4.08;83.67;102927.47;5029336;28;20032;-51
2023/05/03 02:32:26;;;;;;;;;;;;;;;4.08;84.36;102918.94;5022569;27;19925;-49
2023/05/03 02:34:51;;;;;;;;;;;;;;;4.09;84.30;102916.53;5024378;27;19921;-48
2023/05/03 02:37:16;;;;;;;;;;;;;;;4.10;84.05;102905.56;5022436;28;19921;-51
2023/05/03 02:39:42;;;;;;;;;;;;;;;4.10;82.87;102900.47;5022091;27;20413;-49
2023/05/03 02:42:08;;;;;;;;;;;;;;;4.15;82.82;102906.88;5036086;27;20019;-52
2023/05/03 02:44:33;;;;;;;;;;;;;;;4.12;84.06;102898.94;5022708;28;19936;-51
2023/05/03 02:46:58;;;;;;;;;;;;;;;4.16;82.03;102895.91;5019323;28;19933;-48
2023/05/03 02:49:24;;;;;;;;;;;;;;;4.13;80.50;102890.56;5026218;27;20399;-49
2023/05/03 02:51:49;;;;;;;;;;;;;;;4.11;83.37;102883.53;5021826;27;19921;-51
2023/05/03 02:54:14;;;;;;;;;;;;;;;4.10;83.24;102884.31;5023874;27;19931;-49
2023/05/03 02:56:39;;;;;;;;;;;;;;;4.11;82.33;102873.38;5029088;27;20245;-50
2023/05/03 02:59:05;;;;;;;;;;;;;;;4.08;82.11;102870.56;5025039;27;20004;-48
2023/05/03 03:01:32;;;;;;;;;;;;;;;4.08;82.51;102873.13;5024301;27;20379;-47
2023/05/03 03:03:58;;;;;;;;;;;;;;;4.02;84.78;102878.56;5039572;27;20005;-47
2023/05/03 03:06:23;;;;;;;;;;;;;;;4.00;83.71;102874.97;5024253;27;20024;-47
2023/05/03 03:08:48;;;;;;;;;;;;;;;4.00;81.19;102888.63;5020464;28;19921;-47
2023/05/03 03:11:13;;;;;;;;;;;;;;;3.96;83.78;102898.41;5028772;27;19965;-49
2023/05/03 03:13:40;;;;;;;;;;;;;;;3.95;83.01;102907.69;5019780;28;19922;-50
2023/05/03 03:16:08;;;;;;;;;;;;;;;3.92;83.75;102896.34;5021988;28;19925;-48
2023/05/03 03:18:34;;;;;;;;;;;;;;;3.90;85.06;102898.75;5027801;27;19928;-52
2023/05/03 03:21:03;;;;;;;;;;;;;;;3.86;83.56;102889.06;5024920;27;19925;-48
2023/05/03 03:23:28;;;;;;;;;;;;;;;3.86;83.58;102900.91;5020515;28;19966;-52
2023/05/03 03:25:53;;;;;;;;;;;;;;;3.82;84.88;102909.91;5021618;27;19925;-49
2023/05/03 03:28:19;;;;;;;;;;;;;;;3.79;85.88;102913.84;5019969;27;19959;-51
2023/05/03 03:30:45;;;;;;;;;;;;;;;3.73;86.39;102907.44;5023774;27;20524;-50
2023/05/03 03:33:10;;;;;;;;;;;;;;;3.68;85.03;102906.16;5023484;27;20384;-52
2023/05/03 03:35:36;;;;;;;;;;;;;;;3.66;85.14;102906.78;5025998;27;19917;-52
2023/05/03 03:38:01;;;;;;;;;;;;;;;3.63;85.61;102898.88;5022825;27;19925;-48
2023/05/03 03:40:27;;;;;;;;;;;;;;;3.61;84.76;102888.56;5021210;27;20201;-50
2023/05/03 03:42:52;;;;;;;;;;;;;;;3.59;85.59;102897.72;5019037;27;20655;-48
2023/05/03 03:45:17;;;;;;;;;;;;;;;3.57;85.69;102891.59;5033610;27;20009;-48
2023/05/03 03:47:43;;;;;;;;;;;;;;;3.56;86.64;102891.47;5020816;28;19922;-47
2023/05/03 03:50:08;;;;;;;;;;;;;;;3.57;86.66;102901.75;5021135;28;19956;-47
2023/05/03 03:52:33;;;;;;;;;;;;;;;3.57;84.92;102896.66;5021009;28;19982;-49
2023/05/03 03:54:59;;;;;;;;;;;;;;;3.56;85.04;102888.91;5026375;28;19966;-48
2023/05/03 03:57:28;;;;;;;;;;;;;;;3.57;83.89;102891.59;5018684;28;19982;-50
2023/05/03 03:59:54;;;;;;;;;;;;;;;3.58;85.40;102889.94;5019982;27;19976;-48
2023/05/03 04:02:20;;;;;;;;;;;;;;;3.60;86.60;102904.59;5019679;28;20003;-50
2023/05/03 04:04:47;;;;;;;;;;;;;;;3.60;85.79;102901.16;5016441;27;20430;-49
2023/05/03 04:07:12;;;;;;;;;;;;;;;3.61;87.33;102900.38;5020394;27;20300;-51
2023/05/03 04:09:37;;;;;;;;;;;;;;;3.57;86.79;102906.84;5017805;27;19921;-51
2023/05/03 04:12:03;;;;;;;;;;;;;;;3.54;87.63;102906.59;5016677;27;19973;-51
2023/05/03 04:14:28;;;;;;;;;;;;;;;3.52;87.50;102913.19;5017128;27;20395;-47
2023/05/03 04:16:53;;;;;;;;;;;;;;;3.49;87.44;102912.91;5023557;27;20023;-48
2023/05/03 04:19:20;;;;;;;;;;;;;;;3.48;87.77;102913.69;5024029;27;19929;-50
2023/05/03 04:21:46;;;;;;;;;;;;;;;3.47;88.47;102916.97;5020204;28;19948;-50
2023/05/03 04:24:16;;;;;;;;;;;;;;;3.45;88.32;102911.72;5017777;27;20371;-48
2023/05/03 04:26:41;;;;;;;;;;;;;;;3.44;88.14;102919.22;5020155;27;20299;-42
2023/05/03 04:29:06;;;;;;;;;;;;;;;3.41;88.30;102918.97;5028526;27;19929;-44
2023/05/03 04:31:32;;;;;;;;;;;;;;;3.39;87.68;102915.38;5026573;27;19929;-44
2023/05/03 04:33:57;;;;;;;;;;;;;;;3.41;87.58;102916.44;5028695;27;19939;-42
2023/05/03 04:36:24;;;;;;;;;;;;;;;3.43;87.82;102930.16;5027175;27;21785;-43
2023/05/03 04:38:50;;;;;;;;;;;;;;;3.44;87.22;102932.84;5023601;27;19936;-43
2023/05/03 04:41:16;;;;;;;;;;;;;;;3.49;86.98;102940.88;5021760;28;20811;-44
2023/05/03 04:43:41;;;;;;;;;;;;;;;3.51;89.14;102947.00;5026729;27;20003;-41
2023/05/03 04:46:07;;;;;;;;;;;;;;;3.55;89.30;102951.63;5021876;28;19925;-42
2023/05/03 04:48:33;;;;;;;;;;;;;;;3.57;90.39;102945.00;5019221;28;19986;-42
2023/05/03 04:50:58;;;;;;;;;;;;;;;3.61;89.66;102948.72;5023368;28;19922;-44
2023/05/03 04:53:23;;;;;;;;;;;;;;;3.64;90.90;102956.63;5022881;28;19928;-42
2023/05/03 04:55:49;;;;;;;;;;;;;;;3.75;89.40;102959.34;5026018;27;20012;-43
2023/05/03 04:58:14;;;;;;;;;;;;;;;3.89;89.40;102963.16;5021066;27;19929;-43
2023/05/03 05:00:41;;;;;;;;;;;;;;;4.23;89.95;102966.97;5027159;28;19947;-42
2023/05/03 05:03:06;;;;;;;;;;;;;;;4.98;88.44;102970.88;5024154;28;20014;-42
2023/05/03 05:05:32;;;;;;;;;;;;;;;5.80;85.69;102971.69;5026541;27;19965;-43
2023/05/03 05:07:57;;;;;;;;;;;;;;;6.54;82.38;102975.91;5023556;28;20383;-41
2023/05/03 05:10:22;;;;;;;;;;;;;;;7.15;79.80;102972.94;5024576;28;19936;-42
2023/05/03 05:12:47;;;;;;;;;;;;;;;7.68;77.49;102967.47;5015899;28;19933;-45
2023/05/03 05:15:12;;;;;;;;;;;;;;;8.10;75.20;102971.34;5018944;28;20958;-43
2023/05/03 05:17:38;;;;;;;;;;;;;;;8.43;74.02;102966.06;5019873;28;19929;-43
2023/05/03 05:20:06;;;;;;;;;;;;;;;8.89;72.99;102968.38;5016890;28;19925;-42
2023/05/03 05:22:31;;;;;;;;;;;;;;;9.32;71.82;102967.91;5019114;28;19932;-42
2023/05/03 05:24:56;;;;;;;;;;;;;;;9.73;69.34;102961.16;5017722;28;19941;-44
2023/05/03 05:27:22;;;;;;;;;;;;;;;10.10;69.33;102959.25;5018316;28;19929;-43
2023/05/03 05:29:47;;;;;;;;;;;;;;;10.35;67.49;102956.56;5021735;28;19929;-43
2023/05/03 05:32:12;;;;;;;;;;;;;;;10.63;67.14;102961.75;5021673;28;19974;-43
2023/05/03 05:34:38;;;;;;;;;;;;;;;10.55;66.52;102966.41;5018274;28;19925;-43
2023/05/03 05:37:04;;;;;;;;;;;;;;;10.54;67.85;102966.31;5019819;28;19921;-44
2023/05/03 05:39:29;;;;;;;;;;;;;;;10.58;66.12;102969.19;5018962;28;20148;-45
2023/05/03 05:41:55;;;;;;;;;;;;;;;10.58;65.83;102960.56;5020461;28;20024;-43
2023/05/03 05:44:20;;;;;;;;;;;;;;;10.63;67.81;102960.06;5018785;28;19994;-43
2023/05/03 05:46:45;;;;;;;;;;;;;;;10.67;64.07;102969.72;5020196;28;19928;-45
2023/05/03 05:49:11;;;;;;;;;;;;;;;10.69;65.15;102975.88;5019543;28;20335;-43
2023/05/03 05:51:36;;;;;;;;;;;;;;;10.63;65.03;102972.03;5018189;28;20393;-44
2023/05/03 05:54:02;;;;;;;;;;;;;;;10.47;66.95;102973.66;5020282;28;19929;-44
2023/05/03 05:56:27;;;;;;;;;;;;;;;10.18;63.57;102974.38;5019151;28;19929;-42
2023/05/03 05:58:53;;;;;;;;;;;;;;;9.94;65.89;102976.25;5019262;28;19925;-45
2023/05/03 06:01:18;;;;;;;;;;;;;;;9.72;65.04;102979.94;5017763;28;19929;-44
2023/05/03 06:03:43;;;;;;;;;;;;;;;9.58;65.33;102985.03;5017759;28;19921;-44
2023/05/03 06:06:08;;;;;;;;;;;;;;;9.44;65.28;102982.34;5018889;28;19929;-45
2023/05/03 06:08:33;;;;;;;;;;;;;;;9.46;67.26;102985.91;5017331;28;20403;-45
2023/05/03 06:10:59;;;;;;;;;;;;;;;9.34;66.23;102988.53;5019747;28;19921;-42
2023/05/03 06:13:24;;;;;;;;;;;;;;;9.16;68.76;102979.63;5021909;28;19921;-44
2023/05/03 06:15:49;;;;;;;;;;;;;;;9.22;67.12;102990.28;5019070;28;20017;-47
2023/05/03 06:18:15;;;;;;;;;;;;;;;9.14;66.99;102974.38;5015971;28;19936;-43
2023/05/03 06:20:40;;;;;;;;;;;;;;;9.13;67.32;102973.50;5021827;28;20028;-45
2023/05/03 06:23:06;;;;;;;;;;;;;;;9.09;67.47;102963.78;5019380;28;19924;-47
2023/05/03 06:25:31;;;;;;;;;;;;;;;9.38;65.56;102970.00;5023103;28;19928;-45
2023/05/03 06:27:56;;;;;;;;;;;;;;;9.35;66.43;102967.25;5021847;28;20012;-48
2023/05/03 06:30:24;;;;;;;;;;;;;;;9.43;66.96;102962.63;5022485;28;19925;-45
2023/05/03 06:32:49;;;;;;;;;;;;;;;9.58;64.79;102967.06;5026053;28;19932;-47
2023/05/03 06:35:17;;;;;;;;;;;;;;;9.64;64.86;102967.47;5023060;28;19925;-46
2023/05/03 06:37:42;;;;;;;;;;;;;;;9.59;65.58;102960.28;5023265;28;19981;-43
2023/05/03 06:40:08;;;;;;;;;;;;;;;9.50;65.24;102957.97;5014532;28;19925;-45
2023/05/03 06:42:33;;;;;;;;;;;;;;;9.57;65.22;102959.25;5020681;28;19928;-45
2023/05/03 06:44:59;;;;;;;;;;;;;;;9.57;66.05;102955.00;5024077;28;19933;-46
2023/05/03 06:47:24;;;;;;;;;;;;;;;9.68;64.76;102950.56;5019638;28;20378;-47
2023/05/03 06:49:49;;;;;;;;;;;;;;;9.92;64.76;102951.25;5024046;28;19936;-44
2023/05/03 06:52:15;;;;;;;;;;;;;;;10.03;65.35;102947.69;5025269;28;19960;-48
2023/05/03 06:54:40;;;;;;;;;;;;;;;10.39;63.58;102945.69;5022935;28;20016;-45
2023/05/03 06:57:06;;;;;;;;;;;;;;;10.52;61.44;102950.78;5023516;28;20347;-45
2023/05/03 06:59:31;;;;;;;;;;;;;;;10.47;64.47;102947.03;5022786;28;19925;-46
2023/05/03 07:01:57;;;;;;;;;;;;;;;10.66;61.18;102944.81;5022368;28;19921;-46
2023/05/03 07:04:22;;;;;;;;;;;;;;;10.36;63.32;102943.81;5020537;28;19950;-44
2023/05/03 07:06:47;;;;;;;;;;;;;;;10.69;62.65;102959.56;5018740;28;19989;-49
2023/05/03 07:09:12;;;;;;;;;;;;;;;10.85;60.73;102956.19;5017719;28;19929;-45
2023/05/03 07:11:43;;;;;;;;;;;;;;;10.84;60.15;102946.72;5021779;28;19982;-45
2023/05/03 07:14:08;;;;;;;;;;;;;;;10.77;60.86;102948.03;5018857;28;20008;-46
2023/05/03 07:16:33;;;;;;;;;;;;;;;10.85;59.45;102953.63;5020165;28;20395;-44
2023/05/03 07:18:59;;;;;;;;;;;;;;;10.88;58.74;102956.41;5025854;28;19926;-46
2023/05/03 07:21:25;;;;;;;;;;;;;;;10.88;58.91;102956.41;5026233;28;19933;-46
2023/05/03 07:23:51;;;;;;;;;;;;;;;10.77;58.68;102949.72;5025578;28;19925;-44
2023/05/03 07:26:16;;;;;;;;;;;;;;;10.74;59.35;102943.59;5027336;28;19990;-46
2023/05/03 07:28:41;;;;;;;;;;;;;;;10.88;59.99;102948.69;5027097;28;19963;-50
2023/05/03 07:31:06;;;;;;;;;;;;;;;11.09;58.13;102947.38;5025971;28;19982;-52
2023/05/03 07:33:36;;;;;;;;;;;;;;;11.11;56.70;102953.50;5023457;28;19929;-51
2023/05/03 07:36:01;;;;;;;;;;;;;;;11.03;57.05;102944.44;5022438;28;19924;-51
2023/05/03 07:38:26;;;;;;;;;;;;;;;10.93;57.05;102939.56;5021528;28;19922;-52
2023/05/03 07:40:52;;;;;;;;;;;;;;;10.98;58.32;102928.75;5022094;28;19933;-49
2023/05/03 07:43:19;;;;;;;;;;;;;;;11.22;57.59;102934.44;5024682;28;19924;-52
2023/05/03 07:45:44;;;;;;;;;;;;;;;10.99;56.43;102943.38;5023339;28;20352;-50
2023/05/03 07:48:10;;;;;;;;;;;;;;;10.74;57.29;102927.28;5024658;28;20008;-52
2023/05/03 07:50:35;;;;;;;;;;;;;;;10.80;57.63;102924.16;5026573;28;19921;-52
2023/05/03 07:53:00;;;;;;;;;;;;;;;10.93;56.98;102913.81;5028531;28;19921;-50
2023/05/03 07:55:25;;;;;;;;;;;;;;;11.15;56.09;102910.78;5028907;28;19978;-49
2023/05/03 07:57:52;;;;;;;;;;;;;;;11.17;55.25;102906.66;5027764;28;19994;-52
2023/05/03 08:00:17;;;;;;;;;;;;;;;11.16;54.94;102908.34;5022633;28;19925;-52
2023/05/03 08:02:43;;;;;;;;;;;;;;;11.00;56.01;102896.25;5025949;28;19925;-52
2023/05/03 08:05:10;;;;;;;;;;;;;;;11.04;56.14;102897.28;5026231;28;19921;-51
2023/05/03 08:07:35;;;;;;;;;;;;;;;11.27;54.94;102902.09;5021968;28;19944;-50
2023/05/03 08:10:01;;;;;;;;;;;;;;;11.25;54.91;102892.50;5024606;28;20367;-52
2023/05/03 08:12:26;;;;;;;;;;;;;;;11.28;54.81;102884.94;5024499;28;19928;-52
2023/05/03 08:14:52;;;;;;;;;;;;;;;11.39;55.27;102880.41;5027816;28;19964;-49
2023/05/03 08:17:18;;;;;;;;;;;;;;;11.52;52.98;102890.59;5028181;28;20303;-52
2023/05/03 08:19:44;;;;;;;;;;;;;;;11.28;53.43;102884.94;5026217;28;19918;-51
2023/05/03 08:22:11;;;;;;;;;;;;;;;11.22;55.17;102893.25;5025081;28;19924;-48
2023/05/03 08:24:36;;;;;;;;;;;;;;;11.39;54.95;102886.44;5024589;28;19929;-49
2023/05/03 08:27:01;;;;;;;;;;;;;;;11.47;54.65;102890.38;5025754;28;20329;-52
2023/05/03 08:29:27;;;;;;;;;;;;;;;11.42;54.50;102888.34;5029132;28;20012;-53
2023/05/03 08:31:52;;;;;;;;;;;;;;;11.50;55.21;102887.94;5023148;28;19925;-54
2023/05/03 08:34:17;;;;;;;;;;;;;;;11.66;54.39;102875.94;5025951;28;19921;-53
2023/05/03 08:36:43;;;;;;;;;;;;;;;11.76;53.04;102878.19;5025273;28;20383;-54
2023/05/03 08:39:10;;;;;;;;;;;;;;;11.70;53.72;102878.75;5023174;28;19925;-53
2023/05/03 08:41:35;;;;;;;;;;;;;;;11.77;53.83;102880.88;5025125;28;19936;-52
2023/05/03 08:44:03;;;;;;;;;;;;;;;11.82;54.08;102870.84;5022959;28;19917;-53
2023/05/03 08:46:28;;;;;;;;;;;;;;;11.91;52.79;102871.34;5021183;28;20025;-52
2023/05/03 08:48:53;;;;;;;;;;;;;;;12.00;51.80;102870.97;5025294;28;20908;-52
2023/05/03 08:51:22;;;;;;;;;;;;;;;11.84;52.20;102866.69;5022291;28;19917;-51
2023/05/03 08:53:48;;;;;;;;;;;;;;;11.86;50.84;102884.81;5026626;28;20005;-52
2023/05/03 08:56:22;;;;;;;;;;;;;;;11.74;51.87;102885.84;5024390;28;20478;-51
2023/05/03 08:58:47;;;;;;;;;;;;;;;11.81;52.70;102887.13;5023008;28;20019;-52
2023/05/03 09:01:13;;;;;;;;;;;;;;;11.78;52.74;102882.66;5022548;28;20410;-52
2023/05/03 09:03:38;;;;;;;;;;;;;;;11.77;51.63;102896.34;5022361;28;19925;-50
2023/05/03 09:06:17;;;;;;;;;;;;;;;11.66;52.46;102892.28;5020344;28;20751;-51
2023/05/03 09:08:43;;;;;;;;;;;;;;;11.54;53.10;102886.44;5023091;28;19928;-53
2023/05/03 09:11:19;;;;;;;;;;;;;;;11.69;52.82;102888.97;5020048;28;19921;-52
2023/05/03 09:13:44;;;;;;;;;;;;;;;11.77;53.36;102878.31;5021468;28;19995;-51
2023/05/03 09:16:09;;;;;;;;;;;;;;;11.85;53.62;102883.03;5025254;28;19989;-51
2023/05/03 09:18:36;;;;;;;;;;;;;;;12.00;51.61;102886.44;5022407;28;20447;-51
2023/05/03 09:21:01;;;;;;;;;;;;;;;11.88;52.59;102883.19;5024428;28;20337;-51
2023/05/03 09:23:27;;;;;;;;;;;;;;;11.86;51.74;102889.97;5024695;28;20387;-52
2023/05/03 09:25:53;;;;;;;;;;;;;;;11.68;52.54;102884.63;5022904;28;19927;-51
2023/05/03 09:28:18;;;;;;;;;;;;;;;11.65;53.25;102885.38;5025258;28;20696;-52
2023/05/03 09:30:45;;;;;;;;;;;;;;;11.85;52.68;102888.19;5023035;28;19952;-53
2023/05/03 09:33:10;;;;;;;;;;;;;;;11.94;52.20;102883.53;5023028;28;19924;-52
2023/05/03 09:35:36;;;;;;;;;;;;;;;12.03;52.06;102878.88;5028268;28;19955;-48
2023/05/03 09:38:02;;;;;;;;;;;;;;;12.09;52.39;102889.53;5021500;28;19925;-50
2023/05/03 09:40:28;;;;;;;;;;;;;;;12.14;51.44;102893.25;5021306;28;19925;-52
2023/05/03 09:43:10;;;;;;;;;;;;;;;12.09;52.11;102879.22;5024667;28;20391;-50
2023/05/03 09:45:35;;;;;;;;;;;;;;;12.08;52.52;102875.75;5022411;28;19929;-52
2023/05/03 09:48:02;;;;;;;;;;;;;;;12.22;52.14;102875.59;5022793;28;19961;-52
2023/05/03 09:50:28;;;;;;;;;;;;;;;12.44;51.29;102880.19;5024185;28;19925;-52
2023/05/03 09:52:54;;;;;;;;;;;;;;;12.42;50.93;102879.22;5017870;28;19929;-49
2023/05/03 09:55:20;;;;;;;;;;;;;;;12.36;51.42;102872.03;5028659;28;20331;-52
2023/05/03 09:57:46;;;;;;;;;;;;;;;12.49;50.63;102873.56;5023342;28;19958;-52
2023/05/03 10:00:12;;;;;;;;;;;;;;;12.20;51.38;102865.19;5022814;28;20008;-52
2023/05/03 10:02:40;;;;;;;;;;;;;;;12.19;51.88;102860.81;5022711;28;19924;-52
2023/05/03 10:05:06;;;;;;;;;;;;;;;12.42;51.32;102879.22;5021897;28;20279;-52
2023/05/03 10:07:32;;;;;;;;;;;;;;;12.55;51.40;102871.31;5022938;28;19925;-52
2023/05/03 10:09:58;;;;;;;;;;;;;;;12.49;49.62;102873.56;5020054;28;20315;-51
2023/05/03 10:12:24;;;;;;;;;;;;;;;12.50;51.18;102862.47;5020874;28;19935;-51
2023/05/03 10:14:51;;;;;;;;;;;;;;;12.58;51.35;102874.06;5093244;27;20349;-52
2023/05/03 10:17:32;;;;;;;;;;;;;;;12.74;50.92;102874.06;5024447;28;19982;-54
2023/05/03 10:20:07;;;;;;;;;;;;;;;12.69;51.56;102856.56;5022264;28;19917;-51
2023/05/03 10:22:52;;;;;;;;;;;;;;;12.88;50.78;102872.16;5018953;28;20015;-50
2023/05/03 10:25:17;;;;;;;;;;;;;;;12.92;49.87;102868.03;5021395;28;19921;-53
2023/05/03 10:27:45;;;;;;;;;;;;;;;12.84;51.70;102862.47;5015986;28;19925;-51
2023/05/03 10:30:31;;;;;;;;;;;;;;;12.88;50.90;102861.84;5020181;28;20005;-52
2023/05/03 10:32:57;;;;;;;;;;;;;;;12.78;51.42;102869.91;5019325;28;19932;-52
2023/05/03 10:35:26;;;;;;;;;;;;;;;12.98;50.85;102868.31;5019172;28;19917;-49
2023/05/03 10:37:53;;;;;;;;;;;;;;;13.17;50.17;102862.41;5018392;28;20040;-48
2023/05/03 10:40:18;;;;;;;;;;;;;;;13.24;49.57;102860.22;5017833;28;19973;-51
2023/05/03 10:42:45;;;;;;;;;;;;;;;13.24;48.54;102860.22;5018427;28;20395;-46
2023/05/03 10:45:27;;;;;;;;;;;;;;;13.17;48.71;102868.44;5019382;28;19928;-45
2023/05/03 10:48:10;;;;;;;;;;;;;;;13.19;49.77;102861.66;5019086;28;19922;-46
2023/05/03 10:50:36;;;;;;;;;;;;;;;13.24;49.36;102865.38;5017795;28;19974;-49
2023/05/03 10:53:01;;;;;;;;;;;;;;;13.41;49.26;102856.75;5027415;28;19917;-46
2023/05/03 10:55:26;;;;;;;;;;;;;;;13.40;48.84;102854.97;5023258;28;20012;-47
2023/05/03 10:57:56;;;;;;;;;;;;;;;13.38;49.54;102846.25;5021024;28;19939;-44
2023/05/03 11:00:42;;;;;;;;;;;;;;;13.44;48.38;102849.97;5020989;28;19986;-45
2023/05/03 11:03:11;;;;;;;;;;;;;;;13.35;48.56;102842.66;5019713;28;19917;-45
2023/05/03 11:05:37;;;;;;;;;;;;;;;13.26;48.31;102853.41;5053913;28;19930;-47
2023/05/03 11:08:09;;;;;;;;;;;;;;;13.21;49.24;102846.25;5021991;28;19970;-44
2023/05/03 11:10:34;;;;;;;;;;;;;;;13.30;48.80;102846.72;5020544;28;19935;-47
2023/05/03 11:12:59;;;;;;;;;;;;;;;13.47;48.98;102840.66;5020740;28;20023;-46
2023/05/03 11:15:25;;;;;;;;;;;;;;;13.59;49.20;102838.66;5022485;28;19956;-45
2023/05/03 11:17:50;;;;;;;;;;;;;;;13.66;49.31;102837.25;5020502;28;20352;-45
2023/05/03 11:20:15;;;;;;;;;;;;;;;13.95;48.04;102842.06;5023468;28;20027;-48
2023/05/03 11:22:41;;;;;;;;;;;;;;;13.92;48.37;102828.09;5018810;28;19928;-45
2023/05/03 11:25:06;;;;;;;;;;;;;;;14.04;48.95;102820.00;5021263;28;19929;-45
2023/05/03 11:27:31;;;;;;;;;;;;;;;14.18;47.54;102817.22;5020722;28;19928;-44
2023/05/03 11:29:58;;;;;;;;;;;;;;;14.04;47.99;102814.84;5022249;28;19921;-44
2023/05/03 11:32:27;;;;;;;;;;;;;;;14.09;48.47;102810.75;5031889;28;20004;-45
2023/05/03 11:34:52;;;;;;;;;;;;;;;14.24;47.83;102808.84;5019896;28;19921;-45
2023/05/03 11:37:18;;;;;;;;;;;;;;;14.45;46.05;102812.38;5020608;28;19925;-44
2023/05/03 11:39:43;;;;;;;;;;;;;;;14.30;47.35;102806.50;5023220;28;19925;-44
2023/05/03 11:42:08;;;;;;;;;;;;;;;14.30;47.34;102800.44;5025120;28;19925;-45
2023/05/03 11:44:34;;;;;;;;;;;;;;;14.42;47.13;102803.56;5020985;28;20016;-44
2023/05/03 11:47:00;;;;;;;;;;;;;;;14.45;46.51;102796.84;5023135;28;20369;-45
2023/05/03 11:49:25;;;;;;;;;;;;;;;14.32;47.12;102791.97;5020906;28;19921;-45
2023/05/03 11:51:51;;;;;;;;;;;;;;;14.38;47.41;102792.22;5021792;28;19928;-46
2023/05/03 11:54:16;;;;;;;;;;;;;;;14.48;46.91;102784.03;5021199;28;20300;-45
2023/05/03 11:56:41;;;;;;;;;;;;;;;14.46;47.34;102788.28;5022128;28;19942;-46
2023/05/03 11:59:07;;;;;;;;;;;;;;;14.60;45.21;102798.34;5022992;28;19950;-45
2023/05/03 12:01:32;;;;;;;;;;;;;;;14.57;46.76;102780.09;5022848;28;20368;-45
2023/05/03 12:03:59;;;;;;;;;;;;;;;14.73;46.48;102779.91;5032198;28;20410;-46
2023/05/03 12:06:26;;;;;;;;;;;;;;;14.91;45.66;102772.00;5022874;28;20379;-46
2023/05/03 12:08:51;;;;;;;;;;;;;;;15.02;46.06;102765.56;5021024;28;19924;-48
2023/05/03 12:11:17;;;;;;;;;;;;;;;15.01;45.69;102756.91;5021882;28;19929;-46
2023/05/03 12:13:42;;;;;;;;;;;;;;;15.02;45.97;102763.84;5024455;28;19921;-46
2023/05/03 12:16:08;;;;;;;;;;;;;;;15.08;46.10;102762.31;5030860;27;20207;-47
2023/05/03 12:18:46;;;;;;;;;;;;;;;15.28;45.24;102766.56;5024491;28;19921;-49
2023/05/03 12:21:13;;;;;;;;;;;;;;;15.13;44.94;102753.03;5021245;28;20295;-46
2023/05/03 12:23:40;;;;;;;;;;;;;;;15.03;46.08;102744.88;5019999;28;19925;-45
2023/05/03 12:26:05;;;;;;;;;;;;;;;15.02;45.12;102745.69;5025257;28;20294;-46
2023/05/03 12:28:31;;;;;;;;;;;;;;;14.94;46.41;102738.47;5023966;28;20446;-45
2023/05/03 12:30:56;;;;;;;;;;;;;;;14.98;45.26;102736.03;5025175;28;19949;-45
2023/05/03 12:33:21;;;;;;;;;;;;;;;14.95;45.74;102738.53;5024412;28;19921;-47
2023/05/03 12:35:46;;;;;;;;;;;;;;;14.82;45.96;102732.78;5024268;28;19952;-48